Time;durP1;ratioP1;P1;durP2;ratioP2;P2;SDS_P1;SDS_P2;PMS_P1;PMS_P2;Temp;Humidity;BMP_temperature;BMP_pressure;BME280_temperature;BME280_humidity;BME280_pressure;Samples;Min_cycle;Max_cycle;Signal;HPM_P1;HPM_P2
2022/07/06 00:00:06;;;;;;;5.70;0.60;;;12.30;99.90;;;;;;5048716;28;20186;-43
2022/07/06 00:02:32;;;;;;;7.22;0.80;;;12.40;99.90;;;;;;5048652;28;20155;-44
2022/07/06 00:04:58;;;;;;;6.85;0.73;;;12.50;99.90;;;;;;5048778;28;20167;-46
2022/07/06 00:07:24;;;;;;;3.35;0.65;;;12.40;99.90;;;;;;5048866;28;20386;-44
2022/07/06 00:09:50;;;;;;;4.68;0.80;;;12.40;99.90;;;;;;5048719;28;20048;-44
2022/07/06 00:12:16;;;;;;;5.43;0.88;;;12.50;99.90;;;;;;5048418;28;20066;-45
2022/07/06 00:14:41;;;;;;;4.10;0.55;;;12.50;99.90;;;;;;5048740;28;20057;-44
2022/07/06 00:17:07;;;;;;;6.82;1.13;;;12.60;99.90;;;;;;5047927;28;20043;-44
2022/07/06 00:19:33;;;;;;;2.75;0.75;;;12.60;99.90;;;;;;5048379;28;20418;-44
2022/07/06 00:21:59;;;;;;;5.13;0.60;;;12.80;99.90;;;;;;5048714;28;20068;-44
2022/07/06 00:24:24;;;;;;;5.68;0.80;;;12.90;99.90;;;;;;5048779;28;20041;-44
2022/07/06 00:26:50;;;;;;;6.65;1.02;;;12.60;99.90;;;;;;5048397;28;20040;-43
2022/07/06 00:29:16;;;;;;;4.45;0.70;;;12.60;99.90;;;;;;5048270;28;20163;-43
2022/07/06 00:31:41;;;;;;;3.10;0.60;;;12.40;99.90;;;;;;5048923;28;20044;-43
2022/07/06 00:34:07;;;;;;;5.68;0.90;;;12.50;99.90;;;;;;5046917;28;20056;-44
2022/07/06 00:36:33;;;;;;;3.42;0.50;;;12.50;99.90;;;;;;5048104;28;20052;-43
2022/07/06 00:38:58;;;;;;;4.28;0.57;;;12.50;99.90;;;;;;5048349;28;20041;-44
2022/07/06 00:41:24;;;;;;;4.60;0.60;;;13.00;99.90;;;;;;5048278;28;20072;-43
2022/07/06 00:43:52;;;;;;;2.25;0.52;;;12.50;99.90;;;;;;5048560;28;20130;-44
2022/07/06 00:46:18;;;;;;;4.95;0.47;;;12.50;99.90;;;;;;5048233;28;20048;-45
2022/07/06 00:48:44;;;;;;;2.80;0.50;;;12.50;99.90;;;;;;5048559;28;20037;-43
2022/07/06 00:51:12;;;;;;;3.03;0.40;;;12.50;99.90;;;;;;5048510;28;20505;-44
2022/07/06 00:53:38;;;;;;;3.03;0.40;;;12.50;99.90;;;;;;5048404;28;20047;-44
2022/07/06 00:56:04;;;;;;;3.53;0.52;;;13.20;99.90;;;;;;5047939;28;20040;-44
2022/07/06 00:58:29;;;;;;;3.03;0.40;;;12.40;99.90;;;;;;5048222;28;20059;-43
2022/07/06 01:00:55;;;;;;;1.90;0.50;;;12.40;99.90;;;;;;5048083;28;20094;-44
2022/07/06 01:03:21;;;;;;;3.17;0.45;;;12.20;99.90;;;;;;5048070;28;20803;-44
2022/07/06 01:05:46;;;;;;;2.65;0.40;;;12.30;99.90;;;;;;5048032;28;20402;-43
2022/07/06 01:08:12;;;;;;;3.65;0.30;;;12.30;99.90;;;;;;5048180;28;20048;-45
2022/07/06 01:10:38;;;;;;;3.17;0.40;;;12.30;99.90;;;;;;5047886;28;20079;-46
2022/07/06 01:13:04;;;;;;;2.90;0.40;;;13.40;99.90;;;;;;5047569;28;20107;-44
2022/07/06 01:15:30;;;;;;;1.50;0.43;;;12.20;99.90;;;;;;5047967;28;20063;-43
2022/07/06 01:17:56;;;;;;;4.10;0.50;;;12.30;99.90;;;;;;5047803;28;20040;-44
2022/07/06 01:20:23;;;;;;;2.78;0.73;;;12.20;99.90;;;;;;5047376;28;20080;-44
2022/07/06 01:22:51;;;;;;;3.95;0.70;;;12.20;99.90;;;;;;5047821;28;20051;-44
2022/07/06 01:25:18;;;;;;;4.20;0.40;;;12.20;99.90;;;;;;5047594;28;20083;-45
2022/07/06 01:27:44;;;;;;;3.42;0.47;;;12.10;99.90;;;;;;5047776;28;20604;-44
2022/07/06 01:30:16;;;;;;;3.53;0.57;;;12.30;99.90;;;;;;5050603;28;20120;-44
2022/07/06 01:32:42;;;;;;;1.43;0.53;;;12.10;99.90;;;;;;5051790;28;20151;-45
2022/07/06 01:35:11;;;;;;;3.08;0.40;;;12.00;99.90;;;;;;5051744;28;20060;-44
2022/07/06 01:37:37;;;;;;;2.50;0.50;;;12.00;99.90;;;;;;5052260;28;20053;-45
2022/07/06 01:40:06;;;;;;;2.97;0.60;;;12.00;99.90;;;;;;5052032;28;20493;-44
2022/07/06 01:42:32;;;;;;;5.70;0.82;;;12.00;99.90;;;;;;5051893;28;20040;-43
2022/07/06 01:44:58;;;;;;;2.13;0.73;;;11.90;99.90;;;;;;5051661;28;20486;-44
2022/07/06 01:47:24;;;;;;;2.65;0.65;;;12.00;99.90;;;;;;5051495;28;20413;-45
2022/07/06 01:49:49;;;;;;;4.63;1.00;;;12.00;99.90;;;;;;5051361;28;20044;-45
2022/07/06 01:52:15;;;;;;;2.92;0.60;;;12.00;99.90;;;;;;5051408;28;20149;-43
2022/07/06 01:54:41;;;;;;;3.40;0.75;;;12.70;99.90;;;;;;5051667;28;20037;-44
2022/07/06 01:57:07;;;;;;;4.82;0.82;;;12.00;99.90;;;;;;5050047;28;20417;-44
2022/07/06 01:59:32;;;;;;;4.55;0.85;;;12.00;99.90;;;;;;5051127;28;20052;-44
2022/07/06 02:01:58;;;;;;;6.75;1.00;;;12.10;99.90;;;;;;5051026;28;20052;-44
2022/07/06 02:04:24;;;;;;;2.83;0.60;;;12.60;99.90;;;;;;5051443;28;20155;-46
2022/07/06 02:06:49;;;;;;;3.63;0.60;;;11.70;99.90;;;;;;5051162;28;20136;-44
2022/07/06 02:09:16;;;;;;;2.83;0.75;;;11.90;99.90;;;;;;5051300;28;20119;-43
2022/07/06 02:11:42;;;;;;;3.80;0.80;;;12.20;99.90;;;;;;5050688;28;20069;-44
2022/07/06 02:14:08;;;;;;;2.17;0.55;;;12.30;99.90;;;;;;5051367;28;20391;-44
2022/07/06 02:16:34;;;;;;;6.60;1.30;;;11.90;99.90;;;;;;5051032;28;20045;-46
2022/07/06 02:18:59;;;;;;;5.75;0.95;;;11.90;99.90;;;;;;5051174;28;20045;-45
2022/07/06 02:21:25;;;;;;;3.22;0.80;;;12.10;99.90;;;;;;5050991;28;20068;-44
2022/07/06 02:23:50;;;;;;;5.38;1.00;;;12.00;99.90;;;;;;5051350;28;20485;-44
2022/07/06 02:26:16;;;;;;;4.72;0.90;;;12.00;99.90;;;;;;5050818;28;20043;-43
2022/07/06 02:28:42;;;;;;;4.38;0.80;;;12.30;99.90;;;;;;5049618;28;20501;-43
2022/07/06 02:31:07;;;;;;;3.38;0.88;;;12.80;99.90;;;;;;5050901;28;20119;-44
2022/07/06 02:33:33;;;;;;;2.80;0.80;;;12.10;99.90;;;;;;5050490;28;20536;-43
2022/07/06 02:35:59;;;;;;;3.28;0.50;;;12.30;99.90;;;;;;5050782;28;20090;-44
2022/07/06 02:38:25;;;;;;;4.95;0.90;;;13.00;99.90;;;;;;5050242;28;20040;-43
2022/07/06 02:40:50;;;;;;;4.13;0.80;;;12.10;99.90;;;;;;5049909;28;20094;-44
2022/07/06 02:43:16;;;;;;;5.53;0.75;;;12.00;99.90;;;;;;5048835;28;20049;-44
2022/07/06 02:45:42;;;;;;;3.38;0.60;;;12.10;99.90;;;;;;5050495;28;20049;-44
2022/07/06 02:48:07;;;;;;;2.40;0.80;;;12.10;99.90;;;;;;5050057;28;20048;-43
2022/07/06 02:50:33;;;;;;;3.10;0.55;;;12.60;99.90;;;;;;5048902;28;20036;-43
2022/07/06 02:53:00;;;;;;;4.38;0.60;;;12.10;99.90;;;;;;5050338;28;20076;-44
2022/07/06 02:55:26;;;;;;;3.22;0.55;;;12.10;99.90;;;;;;5050076;28;20040;-43
2022/07/06 02:57:52;;;;;;;2.85;1.20;;;12.10;99.90;;;;;;5049845;28;20475;-43
2022/07/06 03:00:17;;;;;;;2.38;0.70;;;12.00;99.90;;;;;;5050087;28;20082;-45
2022/07/06 03:02:43;;;;;;;1.48;0.40;;;12.10;99.90;;;;;;5050420;28;20091;-44
2022/07/06 03:05:09;;;;;;;3.00;0.60;;;12.10;99.90;;;;;;5050315;28;20455;-45
2022/07/06 03:07:34;;;;;;;4.72;0.50;;;12.20;99.90;;;;;;5050303;28;20124;-44
2022/07/06 03:10:00;;;;;;;5.30;0.75;;;12.00;99.90;;;;;;5050045;28;20048;-44
2022/07/06 03:12:26;;;;;;;2.33;0.60;;;12.60;99.90;;;;;;5049877;28;20457;-43
2022/07/06 03:14:51;;;;;;;3.80;0.38;;;12.00;99.90;;;;;;5049867;28;20053;-45
2022/07/06 03:17:17;;;;;;;5.72;0.65;;;12.00;99.90;;;;;;5049564;28;20085;-45
2022/07/06 03:19:43;;;;;;;3.35;0.47;;;12.00;99.90;;;;;;5050026;28;20041;-45
2022/07/06 03:22:09;;;;;;;5.38;1.00;;;12.00;99.90;;;;;;5049653;28;20045;-44
2022/07/06 03:24:34;;;;;;;2.70;0.82;;;12.00;99.90;;;;;;5049686;28;20079;-45
2022/07/06 03:27:00;;;;;;;3.15;0.40;;;12.00;99.90;;;;;;5049953;28;20497;-44
2022/07/06 03:29:25;;;;;;;1.92;0.50;;;12.80;99.90;;;;;;5049659;28;20076;-43
2022/07/06 03:31:51;;;;;;;3.60;0.68;;;13.00;99.90;;;;;;5050053;28;20056;-45
2022/07/06 03:34:17;;;;;;;4.60;0.60;;;12.00;99.90;;;;;;5049639;28;20044;-44
2022/07/06 03:36:42;;;;;;;6.22;0.93;;;11.80;99.90;;;;;;5049652;28;20048;-44
2022/07/06 03:39:08;;;;;;;5.43;0.70;;;11.90;99.90;;;;;;5049658;28;20115;-44
2022/07/06 03:41:34;;;;;;;3.92;0.52;;;12.00;99.90;;;;;;5049330;28;20125;-45
2022/07/06 03:43:59;;;;;;;4.97;0.75;;;12.00;99.90;;;;;;5049757;28;20055;-46
2022/07/06 03:46:25;;;;;;;2.15;0.90;;;11.80;99.90;;;;;;5049555;28;20099;-44
2022/07/06 03:48:51;;;;;;;1.90;0.40;;;11.90;99.90;;;;;;5049887;28;20045;-43
2022/07/06 03:51:17;;;;;;;3.13;0.47;;;12.80;99.90;;;;;;5048952;28;20049;-44
2022/07/06 03:53:43;;;;;;;2.50;0.50;;;11.70;99.90;;;;;;5048672;28;20095;-44
2022/07/06 03:58:53;;;;;;;4.00;0.75;;;12.00;99.90;;;;;;5049064;28;20097;-45
2022/07/06 04:01:19;;;;;;;3.90;0.60;;;11.30;99.90;;;;;;5048979;28;20507;-44
2022/07/06 04:03:44;;;;;;;1.58;0.57;;;11.30;99.90;;;;;;5047527;28;20088;-45
2022/07/06 04:06:10;;;;;;;5.85;0.70;;;11.00;99.90;;;;;;5049094;28;20498;-43
2022/07/06 04:08:36;;;;;;;4.18;0.85;;;11.20;99.90;;;;;;5047646;28;20083;-43
2022/07/06 04:11:02;;;;;;;3.42;0.55;;;11.10;99.90;;;;;;5048437;28;20405;-49
2022/07/06 04:13:28;;;;;;;3.47;0.60;;;11.10;99.90;;;;;;5048918;28;20064;-44
2022/07/06 04:15:54;;;;;;;4.05;1.27;;;11.10;99.90;;;;;;5048842;28;20044;-44
2022/07/06 04:18:19;;;;;;;5.65;0.82;;;11.10;99.90;;;;;;5048597;28;20048;-45
2022/07/06 04:20:45;;;;;;;4.40;1.23;;;11.60;99.90;;;;;;5048660;28;20363;-44
2022/07/06 04:23:11;;;;;;;5.00;0.93;;;12.10;99.90;;;;;;5048398;28;20056;-45
2022/07/06 04:25:36;;;;;;;7.65;1.05;;;11.90;99.90;;;;;;5048556;28;20037;-45
2022/07/06 04:28:03;;;;;;;4.03;0.82;;;12.40;99.90;;;;;;5048107;28;20040;-44
2022/07/06 04:30:28;;;;;;;6.47;0.82;;;12.20;99.90;;;;;;5048302;28;20080;-44
2022/07/06 04:32:55;;;;;;;2.60;0.43;;;12.20;99.90;;;;;;5048632;28;20109;-45
2022/07/06 04:35:21;;;;;;;2.65;0.52;;;12.10;99.90;;;;;;5048607;28;20036;-45
2022/07/06 04:37:47;;;;;;;2.03;0.32;;;12.20;99.90;;;;;;5047467;28;20051;-45
2022/07/06 04:40:13;;;;;;;3.95;0.40;;;12.30;99.90;;;;;;5048289;28;20071;-43
2022/07/06 04:42:39;;;;;;;3.67;0.20;;;12.10;99.90;;;;;;5048320;28;20044;-44
2022/07/06 04:45:06;;;;;;;4.28;0.75;;;12.30;99.90;;;;;;5048081;28;20040;-44
2022/07/06 04:47:31;;;;;;;3.80;0.40;;;12.40;99.90;;;;;;5047960;28;20510;-45
2022/07/06 04:49:57;;;;;;;4.68;0.50;;;12.40;99.90;;;;;;5048624;28;20037;-45
2022/07/06 04:52:23;;;;;;;3.92;0.50;;;12.50;99.90;;;;;;5048777;28;20041;-44
2022/07/06 04:54:49;;;;;;;3.88;0.50;;;12.50;99.90;;;;;;5048321;28;20094;-44
2022/07/06 04:57:14;;;;;;;4.95;0.47;;;12.60;99.90;;;;;;5048582;28;20033;-44
2022/07/06 04:59:40;;;;;;;3.58;0.73;;;12.70;99.90;;;;;;5047854;28;20072;-45
2022/07/06 05:02:06;;;;;;;3.30;0.40;;;13.10;99.90;;;;;;5048064;28;20052;-45
2022/07/06 05:04:32;;;;;;;4.07;0.40;;;12.80;99.90;;;;;;5047519;28;20126;-45
2022/07/06 05:06:58;;;;;;;1.73;0.50;;;13.10;99.90;;;;;;5048238;28;20403;-44
2022/07/06 05:09:24;;;;;;;2.28;0.40;;;13.30;99.90;;;;;;5047925;28;20049;-43
2022/07/06 05:11:50;;;;;;;4.70;0.68;;;13.80;99.90;;;;;;5045857;28;20061;-43
2022/07/06 05:14:15;;;;;;;6.00;1.08;;;14.30;99.90;;;;;;5047500;28;20049;-45
2022/07/06 05:16:41;;;;;;;4.10;0.63;;;14.70;99.90;;;;;;5047853;28;20098;-44
2022/07/06 05:19:07;;;;;;;1.75;0.20;;;14.90;99.90;;;;;;5047816;28;20087;-44
2022/07/06 05:21:33;;;;;;;3.15;0.28;;;15.00;99.90;;;;;;5047450;28;20041;-45
2022/07/06 05:23:58;;;;;;;2.15;0.20;;;15.20;99.90;;;;;;5047918;28;20076;-44
2022/07/06 05:26:24;;;;;;;6.05;0.30;;;15.20;99.90;;;;;;5048014;28;20037;-47
2022/07/06 05:28:50;;;;;;;2.95;0.30;;;15.10;99.90;;;;;;5047590;28;20056;-44
2022/07/06 05:31:16;;;;;;;3.28;0.63;;;15.30;99.90;;;;;;5048138;28;20056;-45
2022/07/06 05:33:41;;;;;;;2.45;0.20;;;15.50;99.90;;;;;;5047803;28;20051;-45
2022/07/06 05:36:07;;;;;;;4.80;0.55;;;15.10;99.90;;;;;;5047991;28;20037;-44
2022/07/06 05:38:33;;;;;;;2.55;0.50;;;15.10;99.90;;;;;;5047404;28;20098;-44
2022/07/06 05:40:59;;;;;;;4.63;0.40;;;15.10;99.90;;;;;;5048207;28;20048;-44
2022/07/06 05:43:25;;;;;;;4.75;0.30;;;15.10;99.90;;;;;;5047725;28;20036;-45
2022/07/06 05:45:50;;;;;;;1.55;0.20;;;15.10;99.90;;;;;;5047608;28;20524;-46
2022/07/06 05:51:00;;;;;;;2.60;0.20;;;15.20;99.90;;;;;;5048230;28;20523;-45
2022/07/06 05:53:26;;;;;;;4.18;0.52;;;15.30;99.90;;;;;;5048090;28;20044;-45
2022/07/06 05:55:52;;;;;;;1.38;0.10;;;15.40;99.90;;;;;;5047904;28;20048;-43
2022/07/06 05:58:18;;;;;;;2.83;0.30;;;15.50;99.90;;;;;;5048497;28;20033;-45
2022/07/06 06:00:44;;;;;;;1.90;0.15;;;15.60;99.90;;;;;;5048003;28;20041;-45
2022/07/06 06:03:09;;;;;;;6.38;0.40;;;15.80;99.90;;;;;;5048250;28;20447;-45
2022/07/06 06:05:35;;;;;;;0.98;0.10;;;15.90;99.90;;;;;;5047717;28;20175;-45
2022/07/06 06:08:01;;;;;;;2.15;0.10;;;16.00;99.90;;;;;;5047851;28;20589;-46
2022/07/06 06:10:26;;;;;;;3.17;0.28;;;16.10;99.90;;;;;;5047493;28;20041;-44
2022/07/06 06:12:52;;;;;;;4.47;0.20;;;16.10;99.90;;;;;;5047518;28;20518;-44
2022/07/06 06:15:18;;;;;;;5.85;0.25;;;16.10;99.90;;;;;;5048705;28;20041;-44
2022/07/06 06:17:44;;;;;;;2.95;0.30;;;16.10;99.90;;;;;;5051522;28;20433;-46
2022/07/06 06:20:13;;;;;;;4.78;0.30;;;16.10;99.90;;;;;;5051464;28;20051;-45
2022/07/06 06:22:52;;;;;;;8.80;1.00;;;16.10;99.90;;;;;;5051538;28;20047;-45
2022/07/06 06:25:21;;;;;;;2.42;0.50;;;16.20;99.90;;;;;;5051457;28;20086;-44
2022/07/06 06:27:47;;;;;;;4.03;0.25;;;16.30;99.90;;;;;;5051217;28;20386;-44
2022/07/06 06:30:13;;;;;;;2.97;0.20;;;16.30;99.90;;;;;;5051301;28;20055;-44
2022/07/06 06:32:40;;;;;;;3.13;0.22;;;16.40;99.90;;;;;;5051144;28;20037;-46
2022/07/06 06:35:06;;;;;;;2.67;0.65;;;16.50;99.90;;;;;;5051486;28;20080;-46
2022/07/06 06:37:32;;;;;;;1.60;0.20;;;16.80;99.90;;;;;;5050664;28;20598;-46
2022/07/06 06:39:58;;;;;;;3.55;0.20;;;17.10;99.90;;;;;;5050703;28;20048;-44
2022/07/06 06:42:23;;;;;;;2.20;0.47;;;18.30;99.90;;;;;;5051195;28;20049;-45
2022/07/06 06:44:49;;;;;;;2.83;0.20;;;18.40;99.90;;;;;;5051279;28;20044;-46
2022/07/06 06:47:15;;;;;;;0.75;0.10;;;18.40;99.10;;;;;;5049584;28;20037;-44
2022/07/06 06:49:40;;;;;;;3.42;0.22;;;18.30;98.00;;;;;;5050971;28;20049;-45
2022/07/06 06:52:06;;;;;;;3.47;0.20;;;18.10;97.50;;;;;;5050808;28;20330;-46
2022/07/06 06:54:32;;;;;;;1.90;0.10;;;17.90;97.10;;;;;;5050660;28;20041;-44
2022/07/06 06:56:57;;;;;;;1.45;0.35;;;17.90;96.70;;;;;;5050677;28;20083;-48
2022/07/06 06:59:23;;;;;;;2.40;0.35;;;17.80;96.20;;;;;;5050825;28;20387;-44
2022/07/06 07:01:49;;;;;;;2.17;0.40;;;17.70;96.80;;;;;;5050903;28;20501;-44
2022/07/06 07:04:15;;;;;;;3.17;0.10;;;17.50;97.80;;;;;;5051080;28;20430;-45
2022/07/06 07:06:40;;;;;;;1.58;0.20;;;17.30;98.50;;;;;;5050568;28;20036;-46
2022/07/06 07:09:06;;;;;;;1.60;0.10;;;17.20;99.40;;;;;;5049860;28;20580;-47
2022/07/06 07:11:32;;;;;;;4.43;0.47;;;17.10;99.90;;;;;;5050092;28;20568;-47
2022/07/06 07:14:00;;;;;;;2.63;0.20;;;17.10;99.90;;;;;;5024792;28;20092;-46
2022/07/06 07:16:26;;;;;;;4.43;0.20;;;17.30;99.90;;;;;;5048998;28;20053;-56
2022/07/06 07:18:52;;;;;;;1.92;0.20;;;19.40;99.90;;;;;;5050579;28;20057;-55
2022/07/06 07:21:18;;;;;;;2.65;0.30;;;17.40;99.90;;;;;;5049128;28;20036;-55
2022/07/06 07:23:44;;;;;;;1.65;0.10;;;17.60;99.90;;;;;;5047915;28;20125;-56
2022/07/06 07:26:09;;;;;;;2.70;0.10;;;17.60;99.90;;;;;;5045235;28;20037;-56
2022/07/06 07:28:35;;;;;;;3.92;0.28;;;17.80;99.90;;;;;;5046865;28;20098;-55
2022/07/06 07:31:01;;;;;;;2.22;0.40;;;17.90;99.90;;;;;;5046631;28;20045;-56
2022/07/06 07:33:26;;;;;;;1.27;0.10;;;18.30;99.90;;;;;;5047995;28;20041;-56
2022/07/06 07:35:52;;;;;;;2.83;0.20;;;19.30;99.90;;;;;;5050933;28;20045;-55
2022/07/06 07:38:18;;;;;;;2.97;0.10;;;21.70;98.60;;;;;;5053384;28;20052;-56
2022/07/06 07:40:43;;;;;;;2.35;0.10;;;24.20;95.30;;;;;;5052487;28;20045;-55
2022/07/06 07:43:09;;;;;;;1.75;0.10;;;25.50;91.70;;;;;;5051692;28;20380;-56
2022/07/06 07:45:34;;;;;;;1.23;0.10;;;26.20;87.50;;;;;;5051723;28;20041;-56
2022/07/06 07:48:00;;;;;;;4.55;0.45;;;26.00;82.10;;;;;;5051606;28;20360;-56
2022/07/06 07:50:26;;;;;;;3.03;0.22;;;26.80;77.30;;;;;;5051361;28;20041;-56
2022/07/06 07:52:52;;;;;;;2.50;0.13;;;27.60;75.60;;;;;;5051765;28;20087;-56
2022/07/06 07:55:18;;;;;;;2.60;0.40;;;28.60;72.40;;;;;;5051492;28;20098;-56
2022/07/06 07:57:44;;;;;;;2.20;0.30;;;30.00;69.60;;;;;;5051623;28;20095;-56
2022/07/06 08:00:10;;;;;;;4.57;0.30;;;31.10;66.00;;;;;;5052012;28;20403;-56
2022/07/06 08:02:36;;;;;;;2.25;0.15;;;31.70;63.90;;;;;;5052254;28;20037;-56
2022/07/06 08:05:02;;;;;;;3.47;0.30;;;32.50;61.30;;;;;;5052016;28;20394;-57
2022/07/06 08:07:27;;;;;;;1.30;0.10;;;32.60;58.80;;;;;;5052023;28;20533;-56
2022/07/06 08:09:53;;;;;;;3.25;0.20;;;32.80;57.40;;;;;;5051678;28;20072;-57
2022/07/06 08:12:19;;;;;;;1.05;0.10;;;32.30;57.50;;;;;;5051520;28;20461;-57
2022/07/06 08:14:45;;;;;;;2.70;0.20;;;31.30;55.70;;;;;;5051769;28;20079;-56
2022/07/06 08:17:10;;;;;;;1.35;0.10;;;29.90;56.50;;;;;;5050432;28;20076;-56
2022/07/06 08:19:36;;;;;;;2.97;0.15;;;28.70;58.40;;;;;;5052450;28;20147;-56
2022/07/06 08:22:06;;;;;;;2.65;0.10;;;27.80;59.80;;;;;;5052036;28;20083;-56
2022/07/06 08:24:34;;;;;;;2.85;0.10;;;27.30;60.80;;;;;;5050572;28;20055;-56
2022/07/06 08:27:03;;;;;;;2.08;0.10;;;27.00;61.80;;;;;;5052002;28;20446;-56
2022/07/06 08:29:29;;;;;;;2.47;0.10;;;26.90;63.80;;;;;;5051727;28;20498;-58
2022/07/06 08:31:55;;;;;;;2.08;0.10;;;27.10;61.70;;;;;;5052176;28;20040;-56
2022/07/06 08:34:21;;;;;;;2.40;0.30;;;27.60;62.80;;;;;;5052181;28;20041;-57
2022/07/06 08:36:47;;;;;;;1.10;0.10;;;28.20;60.20;;;;;;5052059;28;20037;-56
2022/07/06 08:39:13;;;;;;;3.15;0.20;;;28.50;60.90;;;;;;5050879;28;20051;-57
2022/07/06 08:41:41;;;;;;;2.28;0.10;;;28.90;58.70;;;;;;5051515;28;20489;-56
2022/07/06 08:44:08;;;;;;;2.22;0.22;;;29.40;58.20;;;;;;5051887;28;20047;-57
2022/07/06 08:46:37;;;;;;;4.80;0.40;;;29.30;58.10;;;;;;5051357;28;20052;-56
2022/07/06 08:49:05;;;;;;;2.00;0.20;;;28.80;57.00;;;;;;5052198;28;20041;-57
2022/07/06 08:51:31;;;;;;;3.17;0.13;;;27.80;57.30;;;;;;5052404;28;20049;-56
2022/07/06 08:53:57;;;;;;;2.72;0.20;;;26.70;61.70;;;;;;5052620;28;20044;-57
2022/07/06 08:56:23;;;;;;;3.00;0.20;;;25.50;59.80;;;;;;5052129;28;20150;-56
2022/07/06 08:58:50;;;;;;;2.72;0.10;;;24.50;65.40;;;;;;5052364;28;20141;-56
2022/07/06 09:01:17;;;;;;;2.03;0.10;;;23.70;66.20;;;;;;5051922;28;20040;-56
2022/07/06 09:03:46;;;;;;;1.25;0.10;;;23.40;67.10;;;;;;5052629;28;20124;-57
2022/07/06 09:06:18;;;;;;;2.35;0.10;;;24.00;66.10;;;;;;5052323;28;20047;-57
2022/07/06 09:08:44;;;;;;;2.70;0.10;;;25.00;65.50;;;;;;5051473;28;20052;-57
2022/07/06 09:11:10;;;;;;;2.03;0.15;;;26.00;64.40;;;;;;5034047;28;20041;-57
2022/07/06 09:13:36;;;;;;;1.90;0.13;;;26.90;62.80;;;;;;5049943;28;20052;-56
2022/07/06 09:16:12;;;;;;;2.92;0.50;;;27.50;61.30;;;;;;5051486;28;20083;-57
2022/07/06 09:18:39;;;;;;;2.28;0.20;;;28.10;60.10;;;;;;5051232;28;20540;-57
2022/07/06 09:21:08;;;;;;;4.35;0.20;;;28.40;59.10;;;;;;5051654;28;20080;-57
2022/07/06 09:23:34;;;;;;;0.73;0.03;;;28.60;57.70;;;;;;5051996;28;20040;-57
2022/07/06 09:26:03;;;;;;;3.45;0.10;;;29.10;57.10;;;;;;5052266;28;20399;-57
2022/07/06 09:28:42;;;;;;;2.10;0.30;;;30.00;55.90;;;;;;5052261;28;20363;-57
2022/07/06 09:31:08;;;;;;;1.05;0.10;;;31.10;54.60;;;;;;5052373;28;20041;-57
2022/07/06 09:33:35;;;;;;;1.58;0.10;;;31.50;53.60;;;;;;5052383;28;20043;-57
2022/07/06 09:36:02;;;;;;;1.25;0.08;;;31.60;52.50;;;;;;5051646;28;20045;-57
2022/07/06 09:38:28;;;;;;;2.63;0.10;;;31.20;51.50;;;;;;5050088;28;20044;-57
2022/07/06 09:40:54;;;;;;;3.08;0.30;;;30.40;51.80;;;;;;5052657;28;20029;-57
2022/07/06 09:43:24;;;;;;;3.67;0.40;;;29.40;52.50;;;;;;5051220;28;20063;-57
2022/07/06 09:45:50;;;;;;;1.83;0.10;;;28.10;54.70;;;;;;5052083;28;20555;-57
2022/07/06 09:48:18;;;;;;;1.63;0.10;;;28.10;55.20;;;;;;5052253;28;20390;-57
2022/07/06 09:50:46;;;;;;;1.70;0.22;;;27.60;56.00;;;;;;5053921;28;20394;-57
2022/07/06 09:53:13;;;;;;;1.60;0.10;;;28.30;57.20;;;;;;5055992;28;20049;-57
2022/07/06 09:55:43;;;;;;;1.10;0.10;;;28.90;56.00;;;;;;5056187;28;20048;-57
2022/07/06 09:58:08;;;;;;;2.05;0.10;;;28.60;54.70;;;;;;5056063;28;20052;-57
2022/07/06 10:00:34;;;;;;;1.08;0.00;;;27.70;54.80;;;;;;5056147;28;20033;-57
2022/07/06 10:03:01;;;;;;;1.48;0.10;;;26.90;55.50;;;;;;5055300;28;20152;-57
2022/07/06 10:05:29;;;;;;;1.50;0.00;;;26.10;56.50;;;;;;5055283;28;20036;-57
2022/07/06 10:07:59;;;;;;;3.03;0.10;;;24.60;58.10;;;;;;5054196;28;20111;-57
2022/07/06 10:10:29;;;;;;;1.23;0.10;;;24.50;58.60;;;;;;5054414;28;20052;-57
2022/07/06 10:12:56;;;;;;;3.90;0.20;;;24.20;60.30;;;;;;5055195;28;20059;-56
2022/07/06 10:15:27;;;;;;;2.80;0.13;;;23.90;61.60;;;;;;5055413;28;20052;-57
2022/07/06 10:17:54;;;;;;;2.35;0.20;;;23.80;62.60;;;;;;5055217;28;20482;-57
2022/07/06 10:20:21;;;;;;;3.45;0.63;;;23.90;63.20;;;;;;5055353;28;20033;-57
2022/07/06 10:22:50;;;;;;;3.85;0.20;;;24.30;63.40;;;;;;5054179;28;20429;-57
2022/07/06 10:25:17;;;;;;;5.13;0.30;;;24.90;63.90;;;;;;5055491;28;20041;-57
2022/07/06 10:27:44;;;;;;;2.67;0.20;;;25.60;62.80;;;;;;5055052;28;20120;-56
2022/07/06 10:30:10;;;;;;;0.90;0.20;;;26.20;60.10;;;;;;5055703;28;20051;-57
2022/07/06 10:32:39;;;;;;;1.50;0.10;;;26.60;58.70;;;;;;5055182;28;20495;-57
2022/07/06 10:35:05;;;;;;;1.42;0.10;;;27.20;58.40;;;;;;5055008;28;20052;-57
2022/07/06 10:37:32;;;;;;;3.78;0.20;;;27.90;58.00;;;;;;5055182;28;20487;-57
2022/07/06 10:42:51;;;;;;;3.67;0.20;;;28.40;55.70;;;;;;5055097;28;20102;-57
2022/07/06 10:45:46;;;;;;;2.53;0.10;;;28.80;55.60;;;;;;5054963;28;20372;-57
2022/07/06 10:48:11;;;;;;;1.52;0.20;;;29.40;56.30;;;;;;5053132;28;20053;-57
2022/07/06 10:50:55;;;;;;;0.98;0.00;;;30.40;54.40;;;;;;5053543;28;20048;-57
2022/07/06 10:53:27;;;;;;;1.05;0.10;;;30.50;52.80;;;;;;5055228;28;20044;-57
2022/07/06 10:55:57;;;;;;;1.48;0.00;;;30.80;52.10;;;;;;5055111;28;20121;-57
2022/07/06 10:58:46;;;;;;;1.05;0.10;;;30.50;52.10;;;;;;5053611;28;20041;-57
2022/07/06 11:01:12;;;;;;;3.03;0.10;;;29.90;53.40;;;;;;5054477;28;20449;-57
2022/07/06 11:03:46;;;;;;;2.33;0.20;;;29.30;54.20;;;;;;5053569;28;20053;-57
2022/07/06 11:06:18;;;;;;;1.23;0.10;;;28.80;54.90;;;;;;5054317;28;20495;-57
2022/07/06 11:08:46;;;;;;;;;;;28.20;56.30;;;;;;5055124;28;20391;-57
2022/07/06 11:11:16;;;;;;;2.45;0.10;;;27.80;58.00;;;;;;5053188;28;19924;-57
2022/07/06 11:13:58;;;;;;;0.93;0.10;;;27.30;58.40;;;;;;5054529;28;20137;-57
2022/07/06 11:16:26;;;;;;;2.17;0.10;;;26.90;57.70;;;;;;5054717;28;20041;-57
2022/07/06 11:19:14;;;;;;;2.50;0.20;;;26.60;58.10;;;;;;5054114;28;20041;-57
2022/07/06 11:21:51;;;;;;;3.20;0.10;;;26.30;58.90;;;;;;5054253;28;20041;-57
2022/07/06 11:24:21;;;;;;;1.08;0.00;;;26.10;58.70;;;;;;5054290;28;20455;-57
2022/07/06 11:26:48;;;;;;;3.50;0.00;;;26.10;59.20;;;;;;5054089;28;20044;-57
2022/07/06 11:29:17;;;;;;;1.67;0.15;;;26.10;59.10;;;;;;5054132;28;20041;-57
2022/07/06 11:31:45;;;;;;;2.58;0.20;;;26.00;59.00;;;;;;5054155;28;20052;-57
2022/07/06 11:34:14;;;;;;;2.78;0.30;;;25.80;58.70;;;;;;5054054;28;20483;-57
2022/07/06 11:36:40;;;;;;;1.00;0.10;;;25.50;58.90;;;;;;5053626;28;20083;-57
2022/07/06 11:39:06;;;;;;;1.65;0.10;;;25.00;59.90;;;;;;5053010;28;20413;-57
2022/07/06 11:41:33;;;;;;;2.05;0.10;;;24.60;62.70;;;;;;5052579;28;20349;-57
2022/07/06 11:43:59;;;;;;;2.85;0.08;;;24.20;62.90;;;;;;5053049;28;20064;-57
2022/07/06 11:46:31;;;;;;;2.10;0.20;;;24.40;63.00;;;;;;5053050;28;20040;-57
2022/07/06 11:49:03;;;;;;;1.38;0.00;;;23.90;63.40;;;;;;5034704;28;20049;-57
2022/07/06 11:51:30;;;;;;;2.95;0.30;;;24.00;64.50;;;;;;5053055;28;20695;-57
2022/07/06 11:54:02;;;;;;;2.33;0.20;;;24.20;64.60;;;;;;5051924;28;20095;-49
2022/07/06 11:56:29;;;;;;;2.00;0.43;;;24.40;63.80;;;;;;5042404;28;20049;-49
2022/07/06 11:58:59;;;;;;;2.17;0.20;;;24.90;63.90;;;;;;5045017;28;20041;-53
2022/07/06 12:01:28;;;;;;;1.30;0.15;;;25.20;63.00;;;;;;5045779;28;20048;-57
2022/07/06 12:04:04;;;;;;;1.08;0.10;;;25.30;61.80;;;;;;5047532;28;20497;-55
2022/07/06 12:06:30;;;;;;;1.25;0.05;;;25.40;62.30;;;;;;5047145;28;20041;-56
2022/07/06 12:08:58;;;;;;;3.00;0.25;;;25.50;62.30;;;;;;5047215;28;20487;-55
2022/07/06 12:11:29;;;;;;;1.92;0.10;;;25.60;62.30;;;;;;5046623;28;20126;-57
2022/07/06 12:14:00;;;;;;;5.55;0.57;;;25.70;62.60;;;;;;5047708;28;20110;-54
2022/07/06 12:16:45;;;;;;;3.20;0.10;;;25.70;62.60;;;;;;5051674;28;20044;-52
2022/07/06 12:19:12;;;;;;;1.65;0.10;;;25.50;61.90;;;;;;5051049;28;20049;-49
2022/07/06 12:21:48;;;;;;;2.80;0.20;;;25.30;61.50;;;;;;5047173;28;20040;-52
2022/07/06 12:24:24;;;;;;;1.48;0.10;;;25.20;61.60;;;;;;5046582;28;20479;-53
2022/07/06 12:26:52;;;;;;;1.33;0.22;;;25.20;61.40;;;;;;5048371;28;20037;-53
2022/07/06 12:29:19;;;;;;;1.20;0.10;;;25.30;61.40;;;;;;5050863;28;20056;-53
2022/07/06 12:31:47;;;;;;;3.67;0.50;;;25.20;61.60;;;;;;5046265;28;20055;-51
2022/07/06 12:34:15;;;;;;;3.40;0.20;;;25.20;62.50;;;;;;5047305;28;20052;-53
2022/07/06 12:36:53;;;;;;;2.63;0.50;;;25.30;63.20;;;;;;5046258;28;20045;-52
2022/07/06 12:39:21;;;;;;;2.40;0.38;;;25.30;64.00;;;;;;5046604;28;20072;-53
2022/07/06 12:41:52;;;;;;;1.55;0.10;;;25.10;64.90;;;;;;5046509;28;20043;-49
2022/07/06 12:44:22;;;;;;;4.05;0.50;;;24.90;63.70;;;;;;5048283;28;20044;-50
2022/07/06 12:47:02;;;;;;;1.67;0.10;;;24.70;63.80;;;;;;5046695;28;20394;-48
2022/07/06 12:49:28;;;;;;;2.42;0.20;;;24.40;64.70;;;;;;5047025;28;20044;-53
2022/07/06 12:52:11;;;;;;;2.85;0.10;;;24.30;64.70;;;;;;5047169;28;20437;-55
2022/07/06 12:54:41;;;;;;;1.50;0.10;;;24.10;63.70;;;;;;5046126;28;20169;-51